Terminal Aerodrome Forecast
Issued by NWS Blacksburg, VA

Home | Current Version | Previous Version | Text Only | Print | Product List | Glossary On
Versions: 1 2 3 4 5 6 7 8 9 10 11 12 13 14 15 16 17 18 19 20 21 22 23 24
442
FTUS41 KRNK 291141
TAFDAN
TAF
KDAN 291141Z 2912/3012 00000KT P6SM SCT120
     FM291300 07004KT P6SM -RA SCT015 OVC045
     FM291600 07006KT 4SM RA BR OVC030
     FM292300 35004KT 6SM -RA BR OVC030
     FM300400 32003KT 4SM -RA BR OVC015=

USA.gov is the U.S. government's official web portal to all federal, state and local government web resources and services.